sensor_id;sensor_type;location;lat;lon;timestamp;P1;durP1;ratioP1;P2;durP2;ratioP2
53915;SDS011;39827;49.652;18.770;2023-01-16T00:01:42;45.03;;;42.22;;
53915;SDS011;39827;49.652;18.770;2023-01-16T00:04:08;42.13;;;39.58;;
53915;SDS011;39827;49.652;18.770;2023-01-16T00:06:33;30.88;;;28.88;;
53915;SDS011;39827;49.652;18.770;2023-01-16T00:09:01;34.50;;;32.13;;
53915;SDS011;39827;49.652;18.770;2023-01-16T00:11:27;39.03;;;36.33;;
53915;SDS011;39827;49.652;18.770;2023-01-16T00:13:52;28.40;;;26.30;;
53915;SDS011;39827;49.652;18.770;2023-01-16T00:16:18;25.83;;;23.95;;
53915;SDS011;39827;49.652;18.770;2023-01-16T00:18:44;28.77;;;26.75;;
53915;SDS011;39827;49.652;18.770;2023-01-16T00:21:09;28.73;;;26.83;;
53915;SDS011;39827;49.652;18.770;2023-01-16T00:23:35;24.88;;;23.10;;
53915;SDS011;39827;49.652;18.770;2023-01-16T00:26:04;26.05;;;24.02;;
53915;SDS011;39827;49.652;18.770;2023-01-16T00:28:34;26.42;;;24.38;;
53915;SDS011;39827;49.652;18.770;2023-01-16T00:31:01;27.17;;;25.17;;
53915;SDS011;39827;49.652;18.770;2023-01-16T00:33:27;29.38;;;27.23;;
53915;SDS011;39827;49.652;18.770;2023-01-16T00:35:52;24.80;;;22.98;;
53915;SDS011;39827;49.652;18.770;2023-01-16T00:38:18;27.40;;;25.10;;
53915;SDS011;39827;49.652;18.770;2023-01-16T00:40:43;26.10;;;24.25;;
53915;SDS011;39827;49.652;18.770;2023-01-16T00:43:09;23.65;;;22.05;;
53915;SDS011;39827;49.652;18.770;2023-01-16T00:45:35;26.42;;;24.60;;
53915;SDS011;39827;49.652;18.770;2023-01-16T00:48:01;28.42;;;26.63;;
53915;SDS011;39827;49.652;18.770;2023-01-16T00:50:26;25.17;;;23.42;;
53915;SDS011;39827;49.652;18.770;2023-01-16T00:52:51;31.23;;;29.15;;
53915;SDS011;39827;49.652;18.770;2023-01-16T00:55:17;40.20;;;37.85;;
53915;SDS011;39827;49.652;18.770;2023-01-16T00:57:42;33.08;;;31.08;;
53915;SDS011;39827;49.652;18.770;2023-01-16T01:00:08;23.88;;;22.48;;
53915;SDS011;39827;49.652;18.770;2023-01-16T01:02:34;30.27;;;28.30;;
53915;SDS011;39827;49.652;18.770;2023-01-16T01:04:59;40.15;;;37.75;;
53915;SDS011;39827;49.652;18.770;2023-01-16T01:07:25;45.20;;;42.55;;
53915;SDS011;39827;49.652;18.770;2023-01-16T01:09:50;51.92;;;48.83;;
53915;SDS011;39827;49.652;18.770;2023-01-16T01:12:16;52.63;;;49.55;;
53915;SDS011;39827;49.652;18.770;2023-01-16T01:14:41;50.38;;;47.40;;
53915;SDS011;39827;49.652;18.770;2023-01-16T01:17:06;73.93;;;69.75;;
53915;SDS011;39827;49.652;18.770;2023-01-16T01:19:32;51.85;;;48.75;;
53915;SDS011;39827;49.652;18.770;2023-01-16T01:21:57;48.20;;;45.35;;
53915;SDS011;39827;49.652;18.770;2023-01-16T01:24:23;50.97;;;47.97;;
53915;SDS011;39827;49.652;18.770;2023-01-16T01:26:48;39.42;;;37.13;;
53915;SDS011;39827;49.652;18.770;2023-01-16T01:29:14;45.75;;;43.10;;
53915;SDS011;39827;49.652;18.770;2023-01-16T01:31:39;56.30;;;53.03;;
53915;SDS011;39827;49.652;18.770;2023-01-16T01:34:04;47.97;;;45.10;;
53915;SDS011;39827;49.652;18.770;2023-01-16T01:36:30;28.58;;;26.58;;
53915;SDS011;39827;49.652;18.770;2023-01-16T01:38:55;28.80;;;26.83;;
53915;SDS011;39827;49.652;18.770;2023-01-16T01:41:21;26.90;;;25.20;;
53915;SDS011;39827;49.652;18.770;2023-01-16T01:48:47;29.38;;;27.42;;
53915;SDS011;39827;49.652;18.770;2023-01-16T01:51:17;43.10;;;40.35;;
53915;SDS011;39827;49.652;18.770;2023-01-16T01:53:48;57.30;;;53.63;;
53915;SDS011;39827;49.652;18.770;2023-01-16T01:56:20;56.22;;;52.25;;
53915;SDS011;39827;49.652;18.770;2023-01-16T01:59:08;36.85;;;34.30;;
53915;SDS011;39827;49.652;18.770;2023-01-16T02:01:37;33.90;;;31.60;;
53915;SDS011;39827;49.652;18.770;2023-01-16T02:04:05;42.13;;;39.30;;
53915;SDS011;39827;49.652;18.770;2023-01-16T02:06:39;37.33;;;34.63;;
53915;SDS011;39827;49.652;18.770;2023-01-16T02:09:10;25.67;;;23.58;;
53915;SDS011;39827;49.652;18.770;2023-01-16T02:11:42;33.80;;;31.13;;
53915;SDS011;39827;49.652;18.770;2023-01-16T02:14:09;34.67;;;32.08;;
53915;SDS011;39827;49.652;18.770;2023-01-16T02:16:38;28.52;;;26.15;;
53915;SDS011;39827;49.652;18.770;2023-01-16T02:19:26;26.25;;;24.17;;
53915;SDS011;39827;49.652;18.770;2023-01-16T02:30:22;26.88;;;24.48;;
53915;SDS011;39827;49.652;18.770;2023-01-16T02:41:46;30.13;;;27.77;;
53915;SDS011;39827;49.652;18.770;2023-01-16T02:44:20;26.60;;;24.30;;
53915;SDS011;39827;49.652;18.770;2023-01-16T02:46:48;26.15;;;24.25;;
53915;SDS011;39827;49.652;18.770;2023-01-16T02:55:11;28.33;;;26.23;;
53915;SDS011;39827;49.652;18.770;2023-01-16T02:57:45;33.28;;;30.42;;
53915;SDS011;39827;49.652;18.770;2023-01-16T03:00:14;28.58;;;26.27;;
53915;SDS011;39827;49.652;18.770;2023-01-16T03:02:44;36.33;;;33.83;;
53915;SDS011;39827;49.652;18.770;2023-01-16T03:05:11;35.03;;;32.72;;
53915;SDS011;39827;49.652;18.770;2023-01-16T03:13:39;40.83;;;38.13;;
53915;SDS011;39827;49.652;18.770;2023-01-16T03:16:21;42.63;;;40.05;;
53915;SDS011;39827;49.652;18.770;2023-01-16T03:19:10;36.33;;;34.13;;
53915;SDS011;39827;49.652;18.770;2023-01-16T03:21:41;40.35;;;37.97;;
53915;SDS011;39827;49.652;18.770;2023-01-16T03:29:48;38.63;;;36.30;;
53915;SDS011;39827;49.652;18.770;2023-01-16T03:32:45;36.72;;;34.53;;
53915;SDS011;39827;49.652;18.770;2023-01-16T03:35:19;35.45;;;33.20;;
53915;SDS011;39827;49.652;18.770;2023-01-16T03:38:00;40.35;;;37.85;;
53915;SDS011;39827;49.652;18.770;2023-01-16T03:40:34;36.15;;;33.95;;
53915;SDS011;39827;49.652;18.770;2023-01-16T03:43:14;39.97;;;37.60;;
53915;SDS011;39827;49.652;18.770;2023-01-16T03:46:27;36.65;;;34.35;;
53915;SDS011;39827;49.652;18.770;2023-01-16T03:48:40;42.25;;;39.50;;
53915;SDS011;39827;49.652;18.770;2023-01-16T03:51:26;38.10;;;35.55;;
53915;SDS011;39827;49.652;18.770;2023-01-16T03:56:35;26.35;;;24.75;;
53915;SDS011;39827;49.652;18.770;2023-01-16T03:59:09;28.15;;;26.10;;
53915;SDS011;39827;49.652;18.770;2023-01-16T04:01:39;37.35;;;35.03;;
53915;SDS011;39827;49.652;18.770;2023-01-16T04:12:47;27.33;;;25.58;;
53915;SDS011;39827;49.652;18.770;2023-01-16T04:15:17;28.02;;;25.98;;
53915;SDS011;39827;49.652;18.770;2023-01-16T04:17:44;24.83;;;23.17;;
53915;SDS011;39827;49.652;18.770;2023-01-16T04:20:10;23.88;;;22.27;;
53915;SDS011;39827;49.652;18.770;2023-01-16T04:22:36;38.58;;;35.97;;
53915;SDS011;39827;49.652;18.770;2023-01-16T04:25:03;31.75;;;29.73;;
53915;SDS011;39827;49.652;18.770;2023-01-16T04:27:32;29.75;;;27.75;;
53915;SDS011;39827;49.652;18.770;2023-01-16T04:29:57;29.85;;;28.02;;
53915;SDS011;39827;49.652;18.770;2023-01-16T04:32:23;25.05;;;23.45;;
53915;SDS011;39827;49.652;18.770;2023-01-16T04:34:48;25.40;;;23.65;;
53915;SDS011;39827;49.652;18.770;2023-01-16T04:37:14;22.58;;;21.02;;
53915;SDS011;39827;49.652;18.770;2023-01-16T04:39:41;23.35;;;21.95;;
53915;SDS011;39827;49.652;18.770;2023-01-16T04:42:07;27.45;;;25.45;;
53915;SDS011;39827;49.652;18.770;2023-01-16T04:44:33;27.63;;;25.85;;
53915;SDS011;39827;49.652;18.770;2023-01-16T04:46:59;22.15;;;20.83;;
53915;SDS011;39827;49.652;18.770;2023-01-16T04:49:24;26.33;;;24.73;;
53915;SDS011;39827;49.652;18.770;2023-01-16T04:51:49;27.02;;;25.15;;
53915;SDS011;39827;49.652;18.770;2023-01-16T04:54:15;32.22;;;30.08;;
53915;SDS011;39827;49.652;18.770;2023-01-16T04:56:42;22.48;;;20.98;;
53915;SDS011;39827;49.652;18.770;2023-01-16T04:59:08;36.35;;;34.25;;
53915;SDS011;39827;49.652;18.770;2023-01-16T05:01:34;22.15;;;20.73;;
53915;SDS011;39827;49.652;18.770;2023-01-16T05:04:01;21.23;;;19.63;;
53915;SDS011;39827;49.652;18.770;2023-01-16T05:06:27;21.02;;;19.60;;
53915;SDS011;39827;49.652;18.770;2023-01-16T05:08:53;25.50;;;23.98;;
53915;SDS011;39827;49.652;18.770;2023-01-16T05:11:18;27.30;;;25.48;;
53915;SDS011;39827;49.652;18.770;2023-01-16T05:13:44;28.50;;;26.80;;
53915;SDS011;39827;49.652;18.770;2023-01-16T05:16:09;27.85;;;26.20;;
53915;SDS011;39827;49.652;18.770;2023-01-16T05:18:34;25.05;;;23.40;;
53915;SDS011;39827;49.652;18.770;2023-01-16T05:21:00;24.63;;;23.13;;
53915;SDS011;39827;49.652;18.770;2023-01-16T05:23:26;27.02;;;25.42;;
53915;SDS011;39827;49.652;18.770;2023-01-16T05:25:52;25.50;;;23.77;;
53915;SDS011;39827;49.652;18.770;2023-01-16T05:28:18;25.63;;;23.98;;
53915;SDS011;39827;49.652;18.770;2023-01-16T05:30:44;22.42;;;20.88;;
53915;SDS011;39827;49.652;18.770;2023-01-16T05:33:11;30.30;;;28.20;;
53915;SDS011;39827;49.652;18.770;2023-01-16T05:35:37;20.70;;;19.30;;
53915;SDS011;39827;49.652;18.770;2023-01-16T05:38:02;20.70;;;19.40;;
53915;SDS011;39827;49.652;18.770;2023-01-16T05:40:28;26.92;;;25.23;;
53915;SDS011;39827;49.652;18.770;2023-01-16T05:42:53;24.92;;;23.38;;
53915;SDS011;39827;49.652;18.770;2023-01-16T05:45:19;30.02;;;28.05;;
53915;SDS011;39827;49.652;18.770;2023-01-16T05:47:44;29.10;;;27.15;;
53915;SDS011;39827;49.652;18.770;2023-01-16T05:50:09;29.33;;;27.60;;
53915;SDS011;39827;49.652;18.770;2023-01-16T05:52:35;31.17;;;29.02;;
53915;SDS011;39827;49.652;18.770;2023-01-16T05:55:00;27.55;;;25.77;;
53915;SDS011;39827;49.652;18.770;2023-01-16T05:57:26;37.28;;;33.60;;
53915;SDS011;39827;49.652;18.770;2023-01-16T05:59:51;44.03;;;41.08;;
53915;SDS011;39827;49.652;18.770;2023-01-16T06:02:18;41.40;;;38.30;;
53915;SDS011;39827;49.652;18.770;2023-01-16T06:04:45;46.28;;;42.72;;
53915;SDS011;39827;49.652;18.770;2023-01-16T06:07:10;53.45;;;50.22;;
53915;SDS011;39827;49.652;18.770;2023-01-16T06:09:36;48.22;;;45.25;;
53915;SDS011;39827;49.652;18.770;2023-01-16T06:12:02;49.20;;;46.08;;
53915;SDS011;39827;49.652;18.770;2023-01-16T06:14:28;41.42;;;38.70;;
53915;SDS011;39827;49.652;18.770;2023-01-16T06:16:53;50.55;;;47.53;;
53915;SDS011;39827;49.652;18.770;2023-01-16T06:19:18;59.45;;;55.65;;
53915;SDS011;39827;49.652;18.770;2023-01-16T06:21:44;27.35;;;25.45;;
53915;SDS011;39827;49.652;18.770;2023-01-16T06:24:09;51.20;;;47.42;;
53915;SDS011;39827;49.652;18.770;2023-01-16T06:26:35;38.80;;;36.35;;
53915;SDS011;39827;49.652;18.770;2023-01-16T06:29:00;40.00;;;37.10;;
53915;SDS011;39827;49.652;18.770;2023-01-16T06:31:26;57.45;;;53.88;;
53915;SDS011;39827;49.652;18.770;2023-01-16T06:33:51;25.40;;;23.80;;
53915;SDS011;39827;49.652;18.770;2023-01-16T06:36:17;43.38;;;40.33;;
53915;SDS011;39827;49.652;18.770;2023-01-16T06:38:42;39.72;;;37.10;;
53915;SDS011;39827;49.652;18.770;2023-01-16T06:41:07;49.40;;;45.83;;
53915;SDS011;39827;49.652;18.770;2023-01-16T06:43:33;49.28;;;46.03;;
53915;SDS011;39827;49.652;18.770;2023-01-16T06:45:58;27.90;;;25.75;;
53915;SDS011;39827;49.652;18.770;2023-01-16T06:48:24;38.03;;;35.35;;
53915;SDS011;39827;49.652;18.770;2023-01-16T06:50:49;45.83;;;42.50;;
53915;SDS011;39827;49.652;18.770;2023-01-16T06:53:15;24.88;;;22.95;;
53915;SDS011;39827;49.652;18.770;2023-01-16T06:55:41;16.75;;;15.23;;
53915;SDS011;39827;49.652;18.770;2023-01-16T06:58:07;24.77;;;23.20;;
53915;SDS011;39827;49.652;18.770;2023-01-16T07:00:33;19.73;;;17.77;;
53915;SDS011;39827;49.652;18.770;2023-01-16T07:02:59;37.25;;;33.85;;
53915;SDS011;39827;49.652;18.770;2023-01-16T07:05:26;29.55;;;27.10;;
53915;SDS011;39827;49.652;18.770;2023-01-16T07:07:53;40.78;;;38.20;;
53915;SDS011;39827;49.652;18.770;2023-01-16T07:10:19;23.63;;;21.95;;
53915;SDS011;39827;49.652;18.770;2023-01-16T07:12:46;19.60;;;18.08;;
53915;SDS011;39827;49.652;18.770;2023-01-16T07:15:12;18.23;;;16.92;;
53915;SDS011;39827;49.652;18.770;2023-01-16T07:17:56;44.97;;;41.95;;
53915;SDS011;39827;49.652;18.770;2023-01-16T07:20:40;31.17;;;28.60;;
53915;SDS011;39827;49.652;18.770;2023-01-16T07:23:29;44.95;;;42.20;;
53915;SDS011;39827;49.652;18.770;2023-01-16T07:25:59;25.88;;;24.17;;
53915;SDS011;39827;49.652;18.770;2023-01-16T07:28:27;15.35;;;14.35;;
53915;SDS011;39827;49.652;18.770;2023-01-16T07:30:54;37.60;;;34.92;;
53915;SDS011;39827;49.652;18.770;2023-01-16T07:33:20;40.50;;;37.80;;
53915;SDS011;39827;49.652;18.770;2023-01-16T07:35:45;40.10;;;37.45;;
53915;SDS011;39827;49.652;18.770;2023-01-16T07:38:11;44.42;;;41.42;;
53915;SDS011;39827;49.652;18.770;2023-01-16T07:40:36;41.50;;;38.97;;
53915;SDS011;39827;49.652;18.770;2023-01-16T07:43:02;46.03;;;43.13;;
53915;SDS011;39827;49.652;18.770;2023-01-16T07:45:28;39.85;;;37.35;;
53915;SDS011;39827;49.652;18.770;2023-01-16T07:47:53;34.40;;;32.22;;
53915;SDS011;39827;49.652;18.770;2023-01-16T07:50:19;25.95;;;24.23;;
53915;SDS011;39827;49.652;18.770;2023-01-16T07:52:44;25.52;;;23.75;;
53915;SDS011;39827;49.652;18.770;2023-01-16T07:55:11;26.85;;;24.75;;
53915;SDS011;39827;49.652;18.770;2023-01-16T07:57:36;32.97;;;30.70;;
53915;SDS011;39827;49.652;18.770;2023-01-16T08:00:03;35.25;;;32.55;;
53915;SDS011;39827;49.652;18.770;2023-01-16T08:02:29;40.83;;;37.75;;
53915;SDS011;39827;49.652;18.770;2023-01-16T08:04:55;49.83;;;45.50;;
53915;SDS011;39827;49.652;18.770;2023-01-16T08:07:20;35.28;;;32.75;;
53915;SDS011;39827;49.652;18.770;2023-01-16T08:09:46;50.00;;;45.92;;
53915;SDS011;39827;49.652;18.770;2023-01-16T08:12:11;77.53;;;69.85;;
53915;SDS011;39827;49.652;18.770;2023-01-16T08:14:37;30.30;;;28.23;;
53915;SDS011;39827;49.652;18.770;2023-01-16T08:17:04;33.95;;;31.50;;
53915;SDS011;39827;49.652;18.770;2023-01-16T08:19:29;46.13;;;42.55;;
53915;SDS011;39827;49.652;18.770;2023-01-16T08:21:55;65.20;;;58.75;;
53915;SDS011;39827;49.652;18.770;2023-01-16T08:24:20;32.70;;;30.40;;
53915;SDS011;39827;49.652;18.770;2023-01-16T08:26:47;36.20;;;33.65;;
53915;SDS011;39827;49.652;18.770;2023-01-16T08:29:12;29.38;;;27.42;;
53915;SDS011;39827;49.652;18.770;2023-01-16T08:31:37;34.60;;;32.28;;
53915;SDS011;39827;49.652;18.770;2023-01-16T08:34:03;35.88;;;33.53;;
53915;SDS011;39827;49.652;18.770;2023-01-16T08:36:28;28.85;;;26.75;;
53915;SDS011;39827;49.652;18.770;2023-01-16T08:38:54;30.73;;;28.35;;
53915;SDS011;39827;49.652;18.770;2023-01-16T08:41:19;26.88;;;24.77;;
53915;SDS011;39827;49.652;18.770;2023-01-16T08:44:03;33.80;;;31.55;;
53915;SDS011;39827;49.652;18.770;2023-01-16T08:46:51;40.25;;;37.25;;
53915;SDS011;39827;49.652;18.770;2023-01-16T08:49:44;37.95;;;35.47;;
53915;SDS011;39827;49.652;18.770;2023-01-16T08:52:29;41.65;;;38.80;;
53915;SDS011;39827;49.652;18.770;2023-01-16T08:54:56;30.00;;;27.90;;
53915;SDS011;39827;49.652;18.770;2023-01-16T08:57:22;27.75;;;25.92;;
53915;SDS011;39827;49.652;18.770;2023-01-16T08:59:48;26.98;;;24.67;;
53915;SDS011;39827;49.652;18.770;2023-01-16T09:02:13;38.15;;;35.60;;
53915;SDS011;39827;49.652;18.770;2023-01-16T09:04:39;42.67;;;39.80;;
53915;SDS011;39827;49.652;18.770;2023-01-16T09:07:05;46.47;;;43.50;;
53915;SDS011;39827;49.652;18.770;2023-01-16T09:09:30;39.80;;;37.10;;
53915;SDS011;39827;49.652;18.770;2023-01-16T09:11:56;38.55;;;35.88;;
53915;SDS011;39827;49.652;18.770;2023-01-16T09:14:40;52.20;;;48.60;;
53915;SDS011;39827;49.652;18.770;2023-01-16T09:17:06;39.13;;;36.33;;
53915;SDS011;39827;49.652;18.770;2023-01-16T09:19:33;19.58;;;17.80;;
53915;SDS011;39827;49.652;18.770;2023-01-16T09:21:59;19.05;;;17.50;;
53915;SDS011;39827;49.652;18.770;2023-01-16T09:24:25;14.68;;;13.25;;
53915;SDS011;39827;49.652;18.770;2023-01-16T09:26:50;25.45;;;23.13;;
53915;SDS011;39827;49.652;18.770;2023-01-16T09:29:16;22.38;;;20.52;;
53915;SDS011;39827;49.652;18.770;2023-01-16T09:31:41;21.55;;;19.75;;
53915;SDS011;39827;49.652;18.770;2023-01-16T09:34:06;48.75;;;45.47;;
53915;SDS011;39827;49.652;18.770;2023-01-16T09:36:32;52.50;;;48.70;;
53915;SDS011;39827;49.652;18.770;2023-01-16T09:38:57;54.88;;;51.17;;
53915;SDS011;39827;49.652;18.770;2023-01-16T09:41:23;68.35;;;64.10;;
53915;SDS011;39827;49.652;18.770;2023-01-16T09:44:09;81.88;;;77.07;;
53915;SDS011;39827;49.652;18.770;2023-01-16T09:46:40;84.10;;;78.93;;
53915;SDS011;39827;49.652;18.770;2023-01-16T09:51:42;70.35;;;65.97;;
53915;SDS011;39827;49.652;18.770;2023-01-16T09:54:34;69.75;;;65.35;;
53915;SDS011;39827;49.652;18.770;2023-01-16T09:57:22;46.35;;;43.50;;
53915;SDS011;39827;49.652;18.770;2023-01-16T10:00:10;58.00;;;54.25;;
53915;SDS011;39827;49.652;18.770;2023-01-16T10:02:39;48.83;;;45.78;;
53915;SDS011;39827;49.652;18.770;2023-01-16T10:05:06;46.85;;;43.95;;
53915;SDS011;39827;49.652;18.770;2023-01-16T10:24:00;47.70;;;44.67;;
53915;SDS011;39827;49.652;18.770;2023-01-16T10:29:28;51.40;;;48.10;;
53915;SDS011;39827;49.652;18.770;2023-01-16T10:37:16;48.75;;;45.58;;
53915;SDS011;39827;49.652;18.770;2023-01-16T10:39:43;50.28;;;47.17;;
53915;SDS011;39827;49.652;18.770;2023-01-16T10:42:10;48.65;;;45.67;;
53915;SDS011;39827;49.652;18.770;2023-01-16T10:47:46;49.13;;;46.00;;
53915;SDS011;39827;49.652;18.770;2023-01-16T10:50:30;46.28;;;43.33;;
53915;SDS011;39827;49.652;18.770;2023-01-16T10:52:56;20.67;;;19.33;;
53915;SDS011;39827;49.652;18.770;2023-01-16T10:55:22;19.20;;;17.90;;
53915;SDS011;39827;49.652;18.770;2023-01-16T10:57:49;13.90;;;12.80;;
53915;SDS011;39827;49.652;18.770;2023-01-16T11:00:37;13.30;;;11.00;;
53915;SDS011;39827;49.652;18.770;2023-01-16T11:03:14;11.05;;;10.07;;
53915;SDS011;39827;49.652;18.770;2023-01-16T11:05:44;12.50;;;11.40;;
53915;SDS011;39827;49.652;18.770;2023-01-16T11:08:11;18.48;;;17.17;;
53915;SDS011;39827;49.652;18.770;2023-01-16T11:10:39;12.82;;;11.93;;
53915;SDS011;39827;49.652;18.770;2023-01-16T11:13:11;13.85;;;12.88;;
53915;SDS011;39827;49.652;18.770;2023-01-16T11:16:01;16.05;;;14.85;;
53915;SDS011;39827;49.652;18.770;2023-01-16T11:21:41;16.17;;;14.77;;
53915;SDS011;39827;49.652;18.770;2023-01-16T11:24:14;17.65;;;16.17;;
53915;SDS011;39827;49.652;18.770;2023-01-16T11:26:45;15.70;;;14.50;;
53915;SDS011;39827;49.652;18.770;2023-01-16T11:29:15;14.85;;;13.60;;
53915;SDS011;39827;49.652;18.770;2023-01-16T11:31:47;16.17;;;14.82;;
53915;SDS011;39827;49.652;18.770;2023-01-16T11:34:15;16.40;;;15.10;;
53915;SDS011;39827;49.652;18.770;2023-01-16T11:36:40;17.13;;;15.63;;
53915;SDS011;39827;49.652;18.770;2023-01-16T11:39:09;20.25;;;18.65;;
53915;SDS011;39827;49.652;18.770;2023-01-16T11:41:47;19.90;;;18.25;;
53915;SDS011;39827;49.652;18.770;2023-01-16T11:47:00;20.65;;;18.88;;
53915;SDS011;39827;49.652;18.770;2023-01-16T11:49:28;19.90;;;18.30;;
53915;SDS011;39827;49.652;18.770;2023-01-16T11:51:59;19.55;;;18.15;;
53915;SDS011;39827;49.652;18.770;2023-01-16T11:54:28;17.00;;;15.73;;
53915;SDS011;39827;49.652;18.770;2023-01-16T12:14:13;11.15;;;9.40;;
53915;SDS011;39827;49.652;18.770;2023-01-16T12:22:02;10.50;;;8.93;;
53915;SDS011;39827;49.652;18.770;2023-01-16T12:29:51;18.17;;;16.48;;
53915;SDS011;39827;49.652;18.770;2023-01-16T12:32:33;22.80;;;20.77;;
53915;SDS011;39827;49.652;18.770;2023-01-16T12:43:48;43.78;;;40.78;;
53915;SDS011;39827;49.652;18.770;2023-01-16T12:51:54;93.32;;;87.72;;
53915;SDS011;39827;49.652;18.770;2023-01-16T12:59:38;57.90;;;54.20;;
53915;SDS011;39827;49.652;18.770;2023-01-16T13:07:25;41.13;;;38.50;;
53915;SDS011;39827;49.652;18.770;2023-01-16T13:12:48;63.30;;;58.97;;
53915;SDS011;39827;49.652;18.770;2023-01-16T13:15:35;57.95;;;54.17;;
53915;SDS011;39827;49.652;18.770;2023-01-16T13:20:57;53.17;;;49.47;;
53915;SDS011;39827;49.652;18.770;2023-01-16T13:23:31;55.67;;;51.85;;
53915;SDS011;39827;49.652;18.770;2023-01-16T13:25:59;54.17;;;50.47;;
53915;SDS011;39827;49.652;18.770;2023-01-16T13:31:31;78.15;;;72.55;;
53915;SDS011;39827;49.652;18.770;2023-01-16T13:37:06;76.68;;;71.90;;
53915;SDS011;39827;49.652;18.770;2023-01-16T13:42:31;76.97;;;72.20;;
53915;SDS011;39827;49.652;18.770;2023-01-16T13:45:06;68.72;;;64.38;;
53915;SDS011;39827;49.652;18.770;2023-01-16T13:47:59;68.20;;;63.88;;
53915;SDS011;39827;49.652;18.770;2023-01-16T13:50:28;72.25;;;67.43;;
53915;SDS011;39827;49.652;18.770;2023-01-16T13:52:56;73.93;;;68.93;;
53915;SDS011;39827;49.652;18.770;2023-01-16T13:55:27;78.88;;;73.15;;
53915;SDS011;39827;49.652;18.770;2023-01-16T13:57:55;65.05;;;60.78;;
53915;SDS011;39827;49.652;18.770;2023-01-16T14:00:31;61.75;;;57.28;;
53915;SDS011;39827;49.652;18.770;2023-01-16T14:03:02;65.55;;;61.28;;
53915;SDS011;39827;49.652;18.770;2023-01-16T14:05:50;71.68;;;67.13;;
53915;SDS011;39827;49.652;18.770;2023-01-16T14:17:18;74.93;;;70.20;;
53915;SDS011;39827;49.652;18.770;2023-01-16T14:19:56;64.60;;;60.08;;
53915;SDS011;39827;49.652;18.770;2023-01-16T14:22:36;77.82;;;73.05;;
53915;SDS011;39827;49.652;18.770;2023-01-16T14:25:06;73.32;;;68.85;;
53915;SDS011;39827;49.652;18.770;2023-01-16T14:27:42;71.10;;;66.53;;
53915;SDS011;39827;49.652;18.770;2023-01-16T14:30:14;66.53;;;62.30;;
53915;SDS011;39827;49.652;18.770;2023-01-16T14:32:45;61.95;;;57.75;;
53915;SDS011;39827;49.652;18.770;2023-01-16T14:35:23;63.25;;;58.90;;
53915;SDS011;39827;49.652;18.770;2023-01-16T14:38:06;70.03;;;65.68;;
53915;SDS011;39827;49.652;18.770;2023-01-16T14:40:38;67.57;;;63.15;;
53915;SDS011;39827;49.652;18.770;2023-01-16T14:43:30;74.07;;;68.32;;
53915;SDS011;39827;49.652;18.770;2023-01-16T14:52:34;75.30;;;68.32;;
53915;SDS011;39827;49.652;18.770;2023-01-16T14:57:51;28.08;;;25.90;;
53915;SDS011;39827;49.652;18.770;2023-01-16T15:00:20;34.53;;;32.17;;
53915;SDS011;39827;49.652;18.770;2023-01-16T15:02:58;40.03;;;37.17;;
53915;SDS011;39827;49.652;18.770;2023-01-16T15:05:33;41.78;;;38.42;;
53915;SDS011;39827;49.652;18.770;2023-01-16T15:08:26;40.05;;;36.80;;
53915;SDS011;39827;49.652;18.770;2023-01-16T15:10:56;47.65;;;43.85;;
53915;SDS011;39827;49.652;18.770;2023-01-16T15:13:45;49.78;;;46.00;;
53915;SDS011;39827;49.652;18.770;2023-01-16T15:16:28;55.28;;;50.40;;
53915;SDS011;39827;49.652;18.770;2023-01-16T15:19:16;56.30;;;51.03;;
53915;SDS011;39827;49.652;18.770;2023-01-16T15:22:04;52.75;;;48.20;;
53915;SDS011;39827;49.652;18.770;2023-01-16T15:24:55;53.63;;;48.85;;
53915;SDS011;39827;49.652;18.770;2023-01-16T15:27:31;65.45;;;60.05;;
53915;SDS011;39827;49.652;18.770;2023-01-16T15:30:06;49.72;;;45.80;;
53915;SDS011;39827;49.652;18.770;2023-01-16T15:32:55;43.40;;;40.03;;
53915;SDS011;39827;49.652;18.770;2023-01-16T15:35:40;47.55;;;44.08;;
53915;SDS011;39827;49.652;18.770;2023-01-16T15:38:08;48.65;;;44.35;;
53915;SDS011;39827;49.652;18.770;2023-01-16T15:40:36;88.30;;;62.60;;
53915;SDS011;39827;49.652;18.770;2023-01-16T15:43:01;61.97;;;55.72;;
53915;SDS011;39827;49.652;18.770;2023-01-16T15:49:00;102.70;;;91.30;;
53915;SDS011;39827;49.652;18.770;2023-01-16T15:51:32;69.57;;;57.85;;
53915;SDS011;39827;49.652;18.770;2023-01-16T15:53:58;62.50;;;56.45;;
53915;SDS011;39827;49.652;18.770;2023-01-16T15:58:58;66.57;;;60.78;;
53915;SDS011;39827;49.652;18.770;2023-01-16T16:01:31;45.53;;;41.72;;
53915;SDS011;39827;49.652;18.770;2023-01-16T16:03:58;55.80;;;46.05;;
53915;SDS011;39827;49.652;18.770;2023-01-16T16:06:26;62.25;;;56.28;;
53915;SDS011;39827;49.652;18.770;2023-01-16T16:08:54;53.08;;;47.30;;
53915;SDS011;39827;49.652;18.770;2023-01-16T16:11:24;57.22;;;51.33;;
53915;SDS011;39827;49.652;18.770;2023-01-16T16:14:19;56.55;;;50.78;;
53915;SDS011;39827;49.652;18.770;2023-01-16T16:17:05;56.95;;;30.50;;
53915;SDS011;39827;49.652;18.770;2023-01-16T16:23:11;57.03;;;33.42;;
53915;SDS011;39827;49.652;18.770;2023-01-16T16:25:44;45.45;;;31.90;;
53915;SDS011;39827;49.652;18.770;2023-01-16T16:28:16;59.75;;;34.65;;
53915;SDS011;39827;49.652;18.770;2023-01-16T16:30:44;62.63;;;33.17;;
53915;SDS011;39827;49.652;18.770;2023-01-16T16:33:14;49.75;;;29.33;;
53915;SDS011;39827;49.652;18.770;2023-01-16T16:35:41;54.00;;;36.45;;
53915;SDS011;39827;49.652;18.770;2023-01-16T16:38:31;64.53;;;37.43;;
53915;SDS011;39827;49.652;18.770;2023-01-16T16:48:55;77.65;;;35.33;;
53915;SDS011;39827;49.652;18.770;2023-01-16T16:51:32;88.03;;;37.28;;
53915;SDS011;39827;49.652;18.770;2023-01-16T16:53:58;79.40;;;36.92;;
53915;SDS011;39827;49.652;18.770;2023-01-16T16:56:28;85.97;;;39.10;;
53915;SDS011;39827;49.652;18.770;2023-01-16T16:58:56;81.53;;;35.85;;
53915;SDS011;39827;49.652;18.770;2023-01-16T17:01:23;65.50;;;33.67;;
53915;SDS011;39827;49.652;18.770;2023-01-16T17:03:51;69.32;;;36.33;;
53915;SDS011;39827;49.652;18.770;2023-01-16T17:06:21;59.05;;;33.70;;
53915;SDS011;39827;49.652;18.770;2023-01-16T17:08:48;73.07;;;38.17;;
53915;SDS011;39827;49.652;18.770;2023-01-16T17:11:14;71.55;;;37.25;;
53915;SDS011;39827;49.652;18.770;2023-01-16T17:13:40;79.38;;;39.17;;
53915;SDS011;39827;49.652;18.770;2023-01-16T17:16:15;66.97;;;35.75;;
53915;SDS011;39827;49.652;18.770;2023-01-16T17:18:42;100.13;;;40.70;;
53915;SDS011;39827;49.652;18.770;2023-01-16T17:21:08;72.60;;;35.80;;
53915;SDS011;39827;49.652;18.770;2023-01-16T17:23:37;42.33;;;26.63;;
53915;SDS011;39827;49.652;18.770;2023-01-16T17:26:03;24.55;;;21.00;;
53915;SDS011;39827;49.652;18.770;2023-01-16T17:28:28;23.88;;;21.23;;
53915;SDS011;39827;49.652;18.770;2023-01-16T17:30:53;46.10;;;33.88;;
53915;SDS011;39827;49.652;18.770;2023-01-16T17:33:19;42.08;;;33.28;;
53915;SDS011;39827;49.652;18.770;2023-01-16T17:35:46;57.72;;;38.45;;